createdAt,value
2022-07-30T00:05:22.257Z,19.16
2022-07-30T00:11:27.660Z,19.16
2022-07-30T00:17:30.143Z,19.14
2022-07-30T00:23:34.186Z,19.10
2022-07-30T00:29:36.153Z,19.06
2022-07-30T00:35:46.902Z,18.99
2022-07-30T00:42:02.600Z,18.86
2022-07-30T00:48:05.064Z,18.82
2022-07-30T00:54:07.476Z,18.72
2022-07-30T01:00:14.119Z,18.40
2022-07-30T01:06:16.160Z,18.37
2022-07-30T01:12:23.629Z,18.43
2022-07-30T01:18:49.373Z,18.40
2022-07-30T01:25:31.999Z,18.32
2022-07-30T01:31:34.797Z,18.31
2022-07-30T01:37:38.479Z,18.09
2022-07-30T01:43:41.577Z,18.21
2022-07-30T01:49:47.297Z,18.19
2022-07-30T01:55:51.522Z,17.94
2022-07-30T02:01:53.592Z,17.99
2022-07-30T02:08:15.901Z,18.00
2022-07-30T02:14:49.535Z,17.88
2022-07-30T02:21:07.496Z,17.80
2022-07-30T02:27:27.727Z,17.60
2022-07-30T02:33:48.791Z,17.64
2022-07-30T02:39:53.271Z,17.69
2022-07-30T02:45:55.819Z,17.82
2022-07-30T02:51:59.778Z,17.78
2022-07-30T02:58:05.707Z,17.68
2022-07-30T03:04:09.057Z,17.73
2022-07-30T03:10:13.449Z,17.60
2022-07-30T03:16:19.787Z,17.63
2022-07-30T03:22:29.977Z,17.66
2022-07-30T03:28:39.567Z,17.77
2022-07-30T03:34:42.617Z,17.56
2022-07-30T03:40:46.738Z,17.49
2022-07-30T03:46:52.327Z,17.47
2022-07-30T03:52:55.169Z,17.45
2022-07-30T03:58:57.233Z,17.48
2022-07-30T04:04:59.217Z,17.40
2022-07-30T04:11:01.233Z,17.42
2022-07-30T04:17:08.427Z,17.36
2022-07-30T04:23:11.969Z,17.43
2022-07-30T04:29:18.267Z,17.41
2022-07-30T04:35:51.408Z,17.40
2022-07-30T04:41:53.258Z,17.62
2022-07-30T04:47:55.352Z,17.42
2022-07-30T04:53:59.104Z,17.28
2022-07-30T05:00:01.330Z,17.17
2022-07-30T05:06:05.174Z,17.22
2022-07-30T05:12:08.034Z,17.41
2022-07-30T05:18:10.706Z,17.50
2022-07-30T05:24:12.998Z,17.82
2022-07-30T05:30:15.004Z,17.75
2022-07-30T05:36:16.981Z,17.75
2022-07-30T05:42:18.937Z,17.78
2022-07-30T05:48:20.932Z,17.78
2022-07-30T05:54:23.810Z,17.77
2022-07-30T06:00:27.014Z,17.88
2022-07-30T06:06:29.014Z,17.84
2022-07-30T06:12:31.517Z,17.79
2022-07-30T06:18:33.536Z,17.91
2022-07-30T06:24:35.671Z,17.86
2022-07-30T06:30:37.784Z,18.19
2022-07-30T06:36:39.728Z,18.22
2022-07-30T06:42:41.667Z,18.62
2022-07-30T06:48:44.202Z,18.50
2022-07-30T06:54:47.716Z,18.51
2022-07-30T07:00:49.754Z,18.37
2022-07-30T07:06:51.978Z,18.42
2022-07-30T07:12:54.376Z,18.50
2022-07-30T07:18:56.697Z,18.40
2022-07-30T07:24:58.669Z,18.33
2022-07-30T07:31:00.944Z,18.59
2022-07-30T07:37:03.370Z,18.68
2022-07-30T07:43:05.631Z,19.25
2022-07-30T07:49:07.689Z,19.84
2022-07-30T07:55:10.703Z,20.73
2022-07-30T08:01:12.831Z,20.99
2022-07-30T08:07:14.977Z,21.65
2022-07-30T08:13:48.082Z,22.41
2022-07-30T08:19:39.060Z,22.97
2022-07-30T08:25:41.071Z,22.82
2022-07-30T08:31:43.175Z,22.57
2022-07-30T08:37:45.179Z,22.52
2022-07-30T08:43:50.133Z,21.88
2022-07-30T08:49:52.931Z,21.54
2022-07-30T08:55:58.607Z,21.03
2022-07-30T09:02:01.046Z,21.17
2022-07-30T09:08:07.225Z,21.06
2022-07-30T09:14:14.192Z,21.02
2022-07-30T09:20:17.161Z,21.23
2022-07-30T09:26:19.130Z,21.56
2022-07-30T09:32:21.120Z,21.46
2022-07-30T09:38:24.007Z,22.28
2022-07-30T09:44:29.735Z,22.42
2022-07-30T09:50:31.753Z,22.78
2022-07-30T09:56:33.750Z,23.10
2022-07-30T10:02:36.425Z,23.27
2022-07-30T10:08:50.919Z,24.01
2022-07-30T10:14:55.116Z,25.28
2022-07-30T10:20:57.880Z,25.94
2022-07-30T10:27:05.921Z,25.89
2022-07-30T10:33:08.951Z,26.97
2022-07-30T10:39:47.114Z,28.17
2022-07-30T10:46:20.161Z,29.36
2022-07-30T10:52:51.907Z,28.61
2022-07-30T10:59:08.450Z,28.68
2022-07-30T11:05:44.066Z,29.20
2022-07-30T11:11:59.595Z,29.85
2022-07-30T11:18:12.823Z,29.97
2022-07-30T11:24:47.384Z,28.87
2022-07-30T11:30:53.687Z,30.44
2022-07-30T11:37:18.685Z,31.32
2022-07-30T11:43:35.900Z,30.71
2022-07-30T11:49:38.831Z,31.94
2022-07-30T11:55:47.699Z,30.98
2022-07-30T12:01:52.316Z,31.46
2022-07-30T12:07:59.202Z,32.81
2022-07-30T12:14:02.585Z,31.12
2022-07-30T12:20:17.762Z,31.62
2022-07-30T12:26:30.579Z,32.83
2022-07-30T12:32:32.872Z,33.88
2022-07-30T12:38:48.904Z,34.46
2022-07-30T12:44:51.187Z,33.81
2022-07-30T12:51:08.681Z,35.04
2022-07-30T12:57:10.918Z,33.17
2022-07-30T13:03:39.397Z,34.70
2022-07-30T13:09:41.628Z,36.97
2022-07-30T13:15:54.019Z,34.68
2022-07-30T13:21:56.391Z,33.83
2022-07-30T13:27:58.345Z,30.47
2022-07-30T13:34:02.229Z,28.52
2022-07-30T13:40:05.949Z,27.15
2022-07-30T13:46:08.239Z,25.25
2022-07-30T13:52:10.906Z,24.20
2022-07-30T13:58:13.512Z,23.70
2022-07-30T14:04:15.480Z,23.13
2022-07-30T14:10:17.853Z,22.81
2022-07-30T14:16:42.887Z,22.69
2022-07-30T14:22:42.118Z,22.43
2022-07-30T14:28:44.160Z,22.34
2022-07-30T14:34:49.235Z,22.37
2022-07-30T14:40:51.795Z,22.39
2022-07-30T14:46:53.888Z,22.70
2022-07-30T14:52:55.974Z,23.09
2022-07-30T14:58:58.686Z,23.27
2022-07-30T15:05:00.696Z,23.51
2022-07-30T15:11:05.310Z,23.47
2022-07-30T15:17:09.850Z,23.13
2022-07-30T15:23:13.587Z,22.58
2022-07-30T15:29:16.539Z,22.67
2022-07-30T15:35:18.575Z,22.72
2022-07-30T15:41:20.591Z,22.31
2022-07-30T15:47:23.071Z,21.76
2022-07-30T15:53:25.077Z,21.68
2022-07-30T15:59:27.843Z,21.39
2022-07-30T16:05:51.524Z,21.18
2022-07-30T16:11:52.906Z,20.74
2022-07-30T16:17:54.854Z,20.74
2022-07-30T16:23:56.847Z,20.48
2022-07-30T16:29:58.863Z,20.25
2022-07-30T16:36:00.848Z,20.44
2022-07-30T16:42:04.536Z,20.62
2022-07-30T16:48:07.032Z,20.18
2022-07-30T16:54:09.071Z,20.39
2022-07-30T17:00:12.833Z,20.38
2022-07-30T17:06:15.309Z,20.54
2022-07-30T17:12:17.301Z,20.39
2022-07-30T17:18:25.990Z,20.38
2022-07-30T17:24:27.973Z,20.49
2022-07-30T17:30:30.547Z,20.78
2022-07-30T17:36:32.611Z,20.70
2022-07-30T17:42:34.676Z,20.73
2022-07-30T17:48:36.705Z,21.12
2022-07-30T17:54:38.812Z,21.16
2022-07-30T18:00:40.854Z,20.98
2022-07-30T18:06:42.984Z,20.94
2022-07-30T18:12:48.607Z,20.89
2022-07-30T18:18:51.590Z,20.93
2022-07-30T18:24:53.577Z,20.81
2022-07-30T18:30:55.919Z,20.87
2022-07-30T18:36:58.370Z,20.69
2022-07-30T18:43:00.413Z,20.39
2022-07-30T18:49:20.874Z,20.18
2022-07-30T18:55:24.466Z,20.00
2022-07-30T19:01:26.524Z,19.97
2022-07-30T19:07:28.601Z,19.95
2022-07-30T19:13:50.032Z,19.77
2022-07-30T19:19:53.603Z,19.66
2022-07-30T19:25:55.748Z,19.66
2022-07-30T19:31:58.937Z,19.48
2022-07-30T19:38:01.349Z,19.34
2022-07-30T19:44:07.862Z,19.22
2022-07-30T19:50:11.947Z,19.04
2022-07-30T19:56:13.975Z,18.95
2022-07-30T20:02:16.584Z,18.84
2022-07-30T20:08:24.604Z,18.74
2022-07-30T20:14:26.986Z,18.67
2022-07-30T20:20:29.517Z,18.70
2022-07-30T20:26:31.768Z,18.54
2022-07-30T20:32:34.418Z,18.40
2022-07-30T20:38:37.658Z,18.38
2022-07-30T20:44:49.481Z,18.33
2022-07-30T20:50:52.929Z,18.28
2022-07-30T20:56:54.994Z,18.26
2022-07-30T21:02:56.960Z,18.17
2022-07-30T21:08:58.953Z,18.02
2022-07-30T21:15:00.906Z,18.11
2022-07-30T21:21:04.883Z,18.28
2022-07-30T21:27:07.791Z,18.13
2022-07-30T21:33:09.768Z,18.08
2022-07-30T21:39:13.910Z,18.09
2022-07-30T21:45:16.256Z,18.12
2022-07-30T21:51:18.226Z,17.97
2022-07-30T21:57:26.136Z,17.92
2022-07-30T22:04:04.033Z,17.77
2022-07-30T22:09:51.940Z,17.63
2022-07-30T22:15:55.011Z,17.52
2022-07-30T22:21:57.012Z,17.52
2022-07-30T22:27:59.076Z,17.44
2022-07-30T22:34:01.045Z,17.44
2022-07-30T22:40:04.869Z,17.24
2022-07-30T22:46:14.698Z,17.17
2022-07-30T22:52:22.277Z,17.15
2022-07-30T22:58:26.873Z,17.23
2022-07-30T23:04:29.268Z,17.09
2022-07-30T23:10:31.633Z,17.09
2022-07-30T23:16:34.417Z,16.96
2022-07-30T23:22:37.132Z,16.92
2022-07-30T23:28:39.293Z,16.89
2022-07-30T23:34:41.609Z,16.94
2022-07-30T23:40:43.651Z,17.03
2022-07-30T23:46:45.599Z,17.05
2022-07-30T23:52:47.891Z,17.04
2022-07-30T23:58:49.897Z,17.09
